Terminal Aerodrome Forecast
Issued by NWS Upton, NY

Home | Current Version | Previous Version | Text Only | Print | Product List | Glossary On
Versions: 1 2 3 4 5 6 7 8 9 10 11 12 13 14 15 16 17 18 19 20 21 22 23 24 25 26 27 28 29 30 31 32 33 34 35 36 37 38 39 40 41 42 43 44 45 46 47 48 49 50
000
FTUS41 KOKX 191123
TAFJFK
TAF
KJFK 191123Z 1912/2018 19018G24KT P6SM SCT030 SCT150 WS020/21055KT
     FM191400 19018G24KT P6SM OVC012
      TEMPO 1914/1918 -SHRA
     FM191800 18021G27KT 4SM BR OVC010 WS020/20050KT
      TEMPO 1918/1922 -SHRA OVC008
     FM200000 18024G32KT 3SM -SHRA BR OVC010 WS020/19055KT
     FM200600 18020G28KT 2SM +SHRA BR OVC010 WS020/19055KT
     FM201400 17015G22KT 4SM SHRA BR OVC015 WS020/19050KT=

USA.gov is the U.S. government's official web portal to all federal, state and local government web resources and services.